createdAt,value
2022-08-19T00:02:00.343Z,17.80
2022-08-19T00:04:31.726Z,17.90
2022-08-19T00:07:02.312Z,17.70
2022-08-19T00:09:31.414Z,17.70
2022-08-19T00:12:00.496Z,17.70
2022-08-19T00:14:32.529Z,17.70
2022-08-19T00:17:01.906Z,17.70
2022-08-19T00:19:30.982Z,17.60
2022-08-19T00:22:00.832Z,17.60
2022-08-19T00:24:29.635Z,17.60
2022-08-19T00:27:25.157Z,17.50
2022-08-19T00:29:46.910Z,17.50
2022-08-19T00:32:22.516Z,17.50
2022-08-19T00:34:54.340Z,17.40
2022-08-19T00:37:26.381Z,17.50
2022-08-19T00:39:56.687Z,17.40
2022-08-19T00:42:29.320Z,17.40
2022-08-19T00:44:57.858Z,17.40
2022-08-19T00:47:26.370Z,17.30
2022-08-19T00:50:00.275Z,17.30
2022-08-19T00:52:37.194Z,17.30
2022-08-19T00:55:11.051Z,17.30
2022-08-19T00:57:42.149Z,17.20
2022-08-19T01:00:14.740Z,17.20
2022-08-19T01:02:44.067Z,17.20
2022-08-19T01:05:15.920Z,17.20
2022-08-19T01:07:46.316Z,17.10
2022-08-19T01:10:19.390Z,17.10
2022-08-19T01:12:48.279Z,17.10
2022-08-19T01:15:20.764Z,17.10
2022-08-19T01:17:50.080Z,17.00
2022-08-19T01:20:22.983Z,16.90
2022-08-19T01:22:55.757Z,17.00
2022-08-19T01:25:29.932Z,17.10
2022-08-19T01:28:01.643Z,17.00
2022-08-19T01:30:39.531Z,17.00
2022-08-19T01:33:13.579Z,17.00
2022-08-19T01:35:43.464Z,17.00
2022-08-19T01:38:24.066Z,16.90
2022-08-19T01:40:53.611Z,16.90
2022-08-19T01:43:22.093Z,16.90
2022-08-19T01:45:51.919Z,16.90
2022-08-19T01:48:20.789Z,16.90
2022-08-19T01:50:49.336Z,16.90
2022-08-19T01:53:21.020Z,16.90
2022-08-19T01:55:51.781Z,16.90
2022-08-19T01:58:24.732Z,16.90
2022-08-19T02:00:53.763Z,16.90
2022-08-19T02:03:22.229Z,16.90
2022-08-19T02:05:55.971Z,16.90
2022-08-19T02:08:25.796Z,16.90
2022-08-19T02:10:54.572Z,16.90
2022-08-19T02:13:26.397Z,16.90
2022-08-19T02:15:55.331Z,16.80
2022-08-19T02:18:27.808Z,16.80
2022-08-19T02:20:56.640Z,16.90
2022-08-19T02:23:26.478Z,16.80
2022-08-19T02:25:54.961Z,16.80
2022-08-19T02:28:23.496Z,16.80
2022-08-19T02:30:52.019Z,16.70
2022-08-19T02:33:20.443Z,16.70
2022-08-19T02:35:49.301Z,16.70
2022-08-19T02:38:28.861Z,16.60
2022-08-19T02:41:01.451Z,16.60
2022-08-19T02:43:34.423Z,16.60
2022-08-19T02:46:04.008Z,16.60
2022-08-19T02:48:33.723Z,16.60
2022-08-19T02:51:02.392Z,16.60
2022-08-19T02:53:30.889Z,16.50
2022-08-19T02:56:00.760Z,16.50
2022-08-19T02:58:29.240Z,16.50
2022-08-19T03:00:59.292Z,16.50
2022-08-19T03:03:28.523Z,16.50
2022-08-19T03:06:11.915Z,16.40
2022-08-19T03:08:41.929Z,16.50
2022-08-19T03:11:17.048Z,16.40
2022-08-19T03:13:45.716Z,16.40
2022-08-19T03:16:14.780Z,16.40
2022-08-19T03:18:43.636Z,16.30
2022-08-19T03:21:17.208Z,16.30
2022-08-19T03:23:45.682Z,16.30
2022-08-19T03:26:17.136Z,16.30
2022-08-19T03:28:51.605Z,16.30
2022-08-19T03:31:43.664Z,16.30
2022-08-19T03:34:21.426Z,16.30
2022-08-19T03:36:50.420Z,16.30
2022-08-19T03:39:19.449Z,16.30
2022-08-19T03:42:31.954Z,16.30
2022-08-19T03:44:43.233Z,16.30
2022-08-19T03:47:17.346Z,16.20
2022-08-19T03:49:46.297Z,16.20
2022-08-19T03:52:15.165Z,16.20
2022-08-19T03:54:43.807Z,16.20
2022-08-19T03:57:13.630Z,16.30
2022-08-19T03:59:42.248Z,16.20
2022-08-19T04:02:12.545Z,16.20
2022-08-19T04:04:43.990Z,16.10
2022-08-19T04:07:14.513Z,16.10
2022-08-19T04:09:43.169Z,16.10
2022-08-19T04:12:13.186Z,16.10
2022-08-19T04:14:42.293Z,16.10
2022-08-19T04:17:10.855Z,16.10
2022-08-19T04:19:39.527Z,16.00
2022-08-19T04:22:08.097Z,16.10
2022-08-19T04:24:37.228Z,16.00
2022-08-19T04:27:07.456Z,16.10
2022-08-19T04:29:40.422Z,16.10
2022-08-19T04:32:09.938Z,16.00
2022-08-19T04:35:15.805Z,16.00
2022-08-19T04:37:34.796Z,16.00
2022-08-19T04:40:24.507Z,16.00
2022-08-19T04:42:53.069Z,15.90
2022-08-19T04:45:23.299Z,15.90
2022-08-19T04:47:58.228Z,15.90
2022-08-19T04:50:28.495Z,16.00
2022-08-19T04:52:57.646Z,15.80
2022-08-19T04:55:27.468Z,15.80
2022-08-19T04:57:56.496Z,15.80
2022-08-19T05:00:26.309Z,15.70
2022-08-19T05:02:54.852Z,15.70
2022-08-19T05:05:23.436Z,15.70
2022-08-19T05:07:51.857Z,15.70
2022-08-19T05:10:21.488Z,15.70
2022-08-19T05:12:49.916Z,15.70
2022-08-19T05:15:19.787Z,15.70
2022-08-19T05:18:03.464Z,15.70
2022-08-19T05:20:49.138Z,15.80
2022-08-19T05:23:21.945Z,15.80
2022-08-19T05:25:52.563Z,15.90
2022-08-19T05:28:21.573Z,15.90
2022-08-19T05:30:51.837Z,15.90
2022-08-19T05:33:21.690Z,16.00
2022-08-19T05:35:50.993Z,16.00
2022-08-19T05:38:19.805Z,16.00
2022-08-19T05:40:49.076Z,16.10
2022-08-19T05:43:18.363Z,16.10
2022-08-19T05:45:47.375Z,16.20
2022-08-19T05:48:18.335Z,16.30
2022-08-19T05:50:51.232Z,16.40
2022-08-19T05:53:20.433Z,16.60
2022-08-19T05:55:48.899Z,16.60
2022-08-19T05:58:17.355Z,16.70
2022-08-19T06:00:46.699Z,16.90
2022-08-19T06:03:15.151Z,17.00
2022-08-19T06:05:51.474Z,17.20
2022-08-19T06:08:34.411Z,17.30
2022-08-19T06:11:21.742Z,17.40
2022-08-19T06:13:57.197Z,17.50
2022-08-19T06:16:29.316Z,17.70
2022-08-19T06:19:01.811Z,17.80
2022-08-19T06:21:31.934Z,18.00
2022-08-19T06:24:02.015Z,18.20
2022-08-19T06:26:30.471Z,18.50
2022-08-19T06:28:59.017Z,18.50
2022-08-19T06:31:29.708Z,18.70
2022-08-19T06:33:58.188Z,18.90
2022-08-19T06:36:32.528Z,19.30
2022-08-19T06:39:03.124Z,19.40
2022-08-19T06:41:32.691Z,19.50
2022-08-19T06:44:01.111Z,19.70
2022-08-19T06:46:29.807Z,19.90
2022-08-19T06:49:03.763Z,19.90
2022-08-19T06:51:35.257Z,20.00
2022-08-19T06:54:19.421Z,20.00
2022-08-19T06:56:49.133Z,20.00
2022-08-19T06:59:20.576Z,20.00
2022-08-19T07:01:51.448Z,20.00
2022-08-19T07:04:23.112Z,20.00
2022-08-19T07:06:54.951Z,20.00
2022-08-19T07:09:25.296Z,20.00
2022-08-19T07:11:55.302Z,19.90
2022-08-19T07:14:27.175Z,19.90
2022-08-19T07:16:58.039Z,19.90
2022-08-19T07:19:28.407Z,19.90
2022-08-19T07:21:57.548Z,20.00
2022-08-19T07:24:30.298Z,19.90
2022-08-19T07:27:10.334Z,20.00
2022-08-19T07:29:43.790Z,20.10
2022-08-19T07:32:13.540Z,20.20
2022-08-19T07:34:42.118Z,20.30
2022-08-19T07:37:11.973Z,20.30
2022-08-19T07:39:41.872Z,20.30
2022-08-19T07:42:13.348Z,20.40
2022-08-19T07:44:49.812Z,20.50
2022-08-19T07:47:58.510Z,20.50
2022-08-19T07:50:12.287Z,20.50
2022-08-19T07:52:41.281Z,20.60
2022-08-19T07:55:41.225Z,20.70
2022-08-19T07:58:01.306Z,20.70
2022-08-19T08:00:31.866Z,20.70
2022-08-19T08:03:00.303Z,20.70
2022-08-19T08:05:46.058Z,20.80
2022-08-19T08:08:37.367Z,21.00
2022-08-19T08:11:15.602Z,21.30
2022-08-19T08:13:44.320Z,21.50
2022-08-19T08:16:13.885Z,21.60
2022-08-19T08:18:50.467Z,21.60
2022-08-19T08:21:21.474Z,21.60
2022-08-19T08:23:52.077Z,21.70
2022-08-19T08:26:23.077Z,21.70
2022-08-19T08:28:51.541Z,21.50
2022-08-19T08:31:20.598Z,21.60
2022-08-19T08:33:49.491Z,21.70
2022-08-19T08:36:18.692Z,21.80
2022-08-19T08:38:47.712Z,21.90
2022-08-19T08:41:28.716Z,22.00
2022-08-19T08:43:58.409Z,22.00
2022-08-19T08:46:34.588Z,22.10
2022-08-19T08:49:09.693Z,21.90
2022-08-19T08:54:22.217Z,22.00
2022-08-19T08:56:55.547Z,22.20
2022-08-19T08:59:32.091Z,22.60
2022-08-19T09:02:00.745Z,23.10
2022-08-19T09:04:30.019Z,23.80
2022-08-19T09:07:35.389Z,24.30
2022-08-19T09:10:12.115Z,24.60
2022-08-19T09:13:01.493Z,25.00
2022-08-19T09:15:36.865Z,25.10
2022-08-19T09:18:07.375Z,25.30
2022-08-19T09:20:35.941Z,25.60
2022-08-19T09:23:10.428Z,26.00
2022-08-19T09:25:41.087Z,26.30
2022-08-19T09:28:21.929Z,26.60
2022-08-19T09:30:53.229Z,26.90
2022-08-19T09:33:21.787Z,27.10
2022-08-19T09:35:53.842Z,27.20
2022-08-19T09:38:22.603Z,27.30
2022-08-19T09:40:51.478Z,27.40
2022-08-19T09:43:33.196Z,27.50
2022-08-19T09:46:10.954Z,27.50
2022-08-19T09:48:39.578Z,27.30
2022-08-19T09:51:11.892Z,27.00
2022-08-19T09:53:41.219Z,26.70
2022-08-19T09:56:10.276Z,26.30
2022-08-19T09:58:40.736Z,26.10
2022-08-19T10:01:18.678Z,26.10
2022-08-19T10:03:50.515Z,25.70
2022-08-19T10:06:19.625Z,25.60
2022-08-19T10:09:10.674Z,25.40
2022-08-19T10:11:49.874Z,25.10
2022-08-19T10:14:24.526Z,25.00
2022-08-19T10:16:53.200Z,25.20
2022-08-19T10:19:25.445Z,25.40
2022-08-19T10:22:00.292Z,25.70
2022-08-19T10:24:29.476Z,25.70
2022-08-19T10:26:59.928Z,26.00
2022-08-19T10:29:32.035Z,26.30
2022-08-19T10:32:02.948Z,26.50
2022-08-19T10:34:33.029Z,26.70
2022-08-19T10:37:02.294Z,26.80
2022-08-19T10:39:32.588Z,26.90
2022-08-19T10:42:07.005Z,26.90
2022-08-19T10:44:37.305Z,26.90
2022-08-19T10:47:17.642Z,27.00
2022-08-19T10:50:14.481Z,27.10
2022-08-19T10:52:50.159Z,27.30
2022-08-19T10:55:38.238Z,27.40
2022-08-19T10:58:12.364Z,27.60
2022-08-19T11:00:43.237Z,27.70
2022-08-19T11:03:12.012Z,27.80
2022-08-19T11:05:41.540Z,27.80
2022-08-19T11:08:22.333Z,28.00
2022-08-19T11:10:54.570Z,28.30
2022-08-19T11:13:24.165Z,28.40
2022-08-19T11:16:06.566Z,28.70
2022-08-19T11:18:38.085Z,28.80
2022-08-19T11:21:12.356Z,28.80
2022-08-19T11:23:40.908Z,28.70
2022-08-19T11:26:09.527Z,28.70
2022-08-19T11:28:39.432Z,28.70
2022-08-19T11:31:13.712Z,28.50
2022-08-19T11:33:47.794Z,28.40
2022-08-19T11:36:18.236Z,28.10
2022-08-19T11:38:49.259Z,27.90
2022-08-19T11:41:19.502Z,28.10
2022-08-19T11:43:48.224Z,28.30
2022-08-19T11:46:18.695Z,28.50
2022-08-19T11:48:47.168Z,28.70
2022-08-19T11:51:18.317Z,29.00
2022-08-19T11:53:47.209Z,29.30
2022-08-19T11:56:15.794Z,29.60
2022-08-19T11:58:44.581Z,29.70
2022-08-19T12:01:14.649Z,29.60
2022-08-19T12:03:45.855Z,29.40
2022-08-19T12:06:17.486Z,29.20
2022-08-19T12:08:47.043Z,28.90
2022-08-19T12:11:15.919Z,28.70
2022-08-19T12:13:45.833Z,28.60
2022-08-19T12:16:16.565Z,28.70
2022-08-19T12:18:47.357Z,28.70
2022-08-19T12:21:16.377Z,28.60
2022-08-19T12:23:45.917Z,28.40
2022-08-19T12:26:14.989Z,28.20
2022-08-19T12:28:43.916Z,28.00
2022-08-19T12:31:13.437Z,27.80
2022-08-19T12:33:42.533Z,27.50
2022-08-19T12:36:14.425Z,27.30
2022-08-19T12:38:44.940Z,27.10
2022-08-19T12:41:16.263Z,27.00
2022-08-19T12:43:44.694Z,26.90
2022-08-19T12:46:13.710Z,26.80
2022-08-19T12:48:43.560Z,26.70
2022-08-19T12:51:15.465Z,26.60
2022-08-19T12:53:44.842Z,26.40
2022-08-19T12:56:15.628Z,26.30
2022-08-19T12:58:48.587Z,26.30
2022-08-19T13:01:23.082Z,26.20
2022-08-19T13:03:53.024Z,26.30
2022-08-19T13:06:23.728Z,26.40
2022-08-19T13:08:57.736Z,26.60
2022-08-19T13:11:28.080Z,26.70
2022-08-19T13:13:56.988Z,26.80
2022-08-19T13:16:25.483Z,27.00
2022-08-19T13:18:54.023Z,27.10
2022-08-19T13:21:28.158Z,27.10
2022-08-19T13:23:56.598Z,27.30
2022-08-19T13:26:25.533Z,27.40
2022-08-19T13:29:11.411Z,27.40
2022-08-19T13:32:00.355Z,27.30
2022-08-19T13:34:32.731Z,27.10
2022-08-19T13:37:04.904Z,26.80
2022-08-19T13:39:34.753Z,26.40
2022-08-19T13:42:04.047Z,26.30
2022-08-19T13:44:32.576Z,26.00
2022-08-19T13:47:03.579Z,25.80
2022-08-19T13:49:32.091Z,25.60
2022-08-19T13:52:02.216Z,25.20
2022-08-19T13:54:30.698Z,25.10
2022-08-19T13:56:59.178Z,24.60
2022-08-19T13:59:27.643Z,24.30
2022-08-19T14:02:00.353Z,23.80
2022-08-19T14:04:29.117Z,23.30
2022-08-19T14:06:57.526Z,22.80
2022-08-19T14:09:27.336Z,22.50
2022-08-19T14:11:56.283Z,22.20
2022-08-19T14:14:24.843Z,22.10
2022-08-19T14:16:53.827Z,21.90
2022-08-19T14:19:22.304Z,21.80
2022-08-19T14:21:52.093Z,21.80
2022-08-19T14:24:20.705Z,21.70
2022-08-19T14:26:50.792Z,21.70
2022-08-19T14:29:19.411Z,21.70
2022-08-19T14:31:47.879Z,21.60
2022-08-19T14:34:16.353Z,21.50
2022-08-19T14:36:46.102Z,21.60
2022-08-19T14:39:14.579Z,21.60
2022-08-19T14:41:44.011Z,21.70
2022-08-19T14:44:14.237Z,21.60
2022-08-19T14:46:49.254Z,21.70
2022-08-19T14:49:19.327Z,21.90
2022-08-19T14:51:48.514Z,21.90
2022-08-19T14:54:17.061Z,22.00
2022-08-19T14:56:45.501Z,22.00
2022-08-19T14:59:15.340Z,22.30
2022-08-19T15:01:43.999Z,22.20
2022-08-19T15:04:12.666Z,22.20
2022-08-19T15:06:42.128Z,22.20
2022-08-19T15:09:11.159Z,22.30
2022-08-19T15:11:39.654Z,22.40
2022-08-19T15:14:08.081Z,22.20
2022-08-19T15:16:40.416Z,22.20
2022-08-19T15:19:08.960Z,22.20
2022-08-19T15:21:38.244Z,22.30
2022-08-19T15:24:07.205Z,22.40
2022-08-19T15:26:35.684Z,22.60
2022-08-19T15:29:05.456Z,22.80
2022-08-19T15:31:38.167Z,23.00
2022-08-19T15:34:09.076Z,23.20
2022-08-19T15:36:38.536Z,23.50
2022-08-19T15:39:07.462Z,23.60
2022-08-19T15:41:37.001Z,23.70
2022-08-19T15:44:09.570Z,23.80
2022-08-19T15:46:40.317Z,24.00
2022-08-19T15:49:10.898Z,24.00
2022-08-19T15:51:42.908Z,24.00
2022-08-19T15:54:14.196Z,23.90
2022-08-19T15:57:00.025Z,23.80
2022-08-19T15:59:47.433Z,23.70
2022-08-19T16:02:35.040Z,23.60
2022-08-19T16:05:27.881Z,23.50
2022-08-19T16:07:57.420Z,23.40
2022-08-19T16:10:27.863Z,23.10
2022-08-19T16:12:57.953Z,23.20
2022-08-19T16:15:27.797Z,23.10
2022-08-19T16:17:57.716Z,23.10
2022-08-19T16:20:28.232Z,23.00
2022-08-19T16:22:58.137Z,23.00
2022-08-19T16:25:29.836Z,23.00
2022-08-19T16:28:07.078Z,23.00
2022-08-19T16:30:38.528Z,22.80
2022-08-19T16:33:07.497Z,22.80
2022-08-19T16:35:38.282Z,22.70
2022-08-19T16:38:07.777Z,22.70
2022-08-19T16:40:36.617Z,22.60
2022-08-19T16:43:05.452Z,22.60
2022-08-19T16:45:33.900Z,22.60
2022-08-19T16:48:02.440Z,22.50
2022-08-19T16:50:48.339Z,22.60
2022-08-19T16:53:22.499Z,22.50
2022-08-19T16:55:57.512Z,22.50
2022-08-19T16:58:28.497Z,22.50
2022-08-19T17:01:02.066Z,22.50
2022-08-19T17:03:36.379Z,22.40
2022-08-19T17:06:17.903Z,22.40
2022-08-19T17:08:52.030Z,22.30
2022-08-19T17:11:21.540Z,22.20
2022-08-19T17:13:51.184Z,22.10
2022-08-19T17:16:22.060Z,22.00
2022-08-19T17:18:52.781Z,21.90
2022-08-19T17:21:25.467Z,21.80
2022-08-19T17:23:55.514Z,21.50
2022-08-19T17:26:25.811Z,21.60
2022-08-19T17:28:57.008Z,21.50
2022-08-19T17:31:27.960Z,21.40
2022-08-19T17:33:58.941Z,21.40
2022-08-19T17:36:29.282Z,21.30
2022-08-19T17:39:01.510Z,21.40
2022-08-19T17:41:31.886Z,21.40
2022-08-19T17:44:00.404Z,21.40
2022-08-19T17:46:30.040Z,21.40
2022-08-19T17:48:58.725Z,21.40
2022-08-19T17:51:42.088Z,21.40
2022-08-19T17:54:15.191Z,21.40
2022-08-19T17:56:46.144Z,21.40
2022-08-19T17:59:14.989Z,21.40
2022-08-19T18:01:52.292Z,21.40
2022-08-19T18:04:24.015Z,21.40
2022-08-19T18:06:54.398Z,21.40
2022-08-19T18:09:27.366Z,21.40
2022-08-19T18:11:57.572Z,21.30
2022-08-19T18:14:33.784Z,21.30
2022-08-19T18:17:06.254Z,21.30
2022-08-19T18:19:41.956Z,21.30
2022-08-19T18:22:25.508Z,21.20
2022-08-19T18:24:56.308Z,21.20
2022-08-19T18:27:24.948Z,21.20
2022-08-19T18:29:56.591Z,21.20
2022-08-19T18:32:26.067Z,21.20
2022-08-19T18:34:56.100Z,21.30
2022-08-19T18:37:26.567Z,21.10
2022-08-19T18:40:19.634Z,21.10
2022-08-19T18:43:17.326Z,21.10
2022-08-19T18:46:04.164Z,21.10
2022-08-19T18:48:53.519Z,21.10
2022-08-19T18:51:28.195Z,21.00
2022-08-19T18:53:58.629Z,21.00
2022-08-19T18:56:31.739Z,21.00
2022-08-19T18:59:00.951Z,21.00
2022-08-19T19:01:31.737Z,21.00
2022-08-19T19:04:02.731Z,21.00
2022-08-19T19:06:35.758Z,21.00
2022-08-19T19:09:04.747Z,20.90
2022-08-19T19:11:37.990Z,21.00
2022-08-19T19:14:19.295Z,21.10
2022-08-19T19:17:01.996Z,21.00
2022-08-19T19:19:30.942Z,21.00
2022-08-19T19:22:00.974Z,21.00
2022-08-19T19:24:32.628Z,20.90
2022-08-19T19:27:06.777Z,20.90
2022-08-19T19:29:36.656Z,20.90
2022-08-19T19:32:05.600Z,20.90
2022-08-19T19:34:34.685Z,20.80
2022-08-19T19:37:03.165Z,20.70
2022-08-19T19:39:45.287Z,20.70
2022-08-19T19:42:19.917Z,20.60
2022-08-19T19:44:50.849Z,20.60
2022-08-19T19:47:19.715Z,20.50
2022-08-19T19:52:39.662Z,20.40
2022-08-19T19:55:09.428Z,20.40
2022-08-19T19:57:39.634Z,20.30
2022-08-19T20:00:10.868Z,20.30
2022-08-19T20:02:39.320Z,20.20
2022-08-19T20:05:08.440Z,20.20
2022-08-19T20:07:54.427Z,20.10
2022-08-19T20:10:23.251Z,20.20
2022-08-19T20:12:54.746Z,20.10
2022-08-19T20:15:24.134Z,20.00
2022-08-19T20:17:52.672Z,20.00
2022-08-19T20:20:21.894Z,20.00
2022-08-19T20:22:50.365Z,19.90
2022-08-19T20:25:22.270Z,19.90
2022-08-19T20:27:52.366Z,19.90
2022-08-19T20:30:23.243Z,19.90
2022-08-19T20:32:52.030Z,19.80
2022-08-19T20:35:22.093Z,19.80
2022-08-19T20:37:52.866Z,19.80
2022-08-19T20:40:24.539Z,19.70
2022-08-19T20:42:54.392Z,19.70
2022-08-19T20:45:33.007Z,19.70
2022-08-19T20:48:03.584Z,19.70
2022-08-19T20:50:33.339Z,19.70
2022-08-19T20:53:02.094Z,19.70
2022-08-19T20:55:30.611Z,19.80
2022-08-19T20:58:00.430Z,19.70
2022-08-19T21:00:29.359Z,19.70
2022-08-19T21:02:58.043Z,19.70
2022-08-19T21:05:30.378Z,19.70
2022-08-19T21:07:59.484Z,19.90
2022-08-19T21:10:27.999Z,19.70
2022-08-19T21:12:56.436Z,19.80
2022-08-19T21:15:26.489Z,19.80
2022-08-19T21:17:55.051Z,19.80
2022-08-19T21:20:23.972Z,19.80
2022-08-19T21:22:52.382Z,19.80
2022-08-19T21:25:20.923Z,19.80
2022-08-19T21:27:49.378Z,19.80
2022-08-19T21:30:17.829Z,19.90
2022-08-19T21:32:52.279Z,19.70
2022-08-19T21:35:21.240Z,19.90
2022-08-19T21:37:49.825Z,19.80
2022-08-19T21:40:18.966Z,19.80
2022-08-19T21:42:48.029Z,19.80
2022-08-19T21:45:17.420Z,19.80
2022-08-19T21:47:47.297Z,19.90
2022-08-19T21:50:15.820Z,19.80
2022-08-19T21:52:44.478Z,19.80
2022-08-19T21:55:13.588Z,19.80
2022-08-19T21:57:42.618Z,19.80
2022-08-19T22:00:16.620Z,19.80
2022-08-19T22:02:45.070Z,19.80
2022-08-19T22:05:15.624Z,19.80
2022-08-19T22:07:44.145Z,19.80
2022-08-19T22:10:12.843Z,19.90
2022-08-19T22:12:46.102Z,19.80
2022-08-19T22:15:22.114Z,19.90
2022-08-19T22:17:50.939Z,19.90
2022-08-19T22:20:24.703Z,19.90
2022-08-19T22:22:56.955Z,19.90
2022-08-19T22:25:31.567Z,19.90
2022-08-19T22:28:01.712Z,19.90
2022-08-19T22:30:33.712Z,19.90
2022-08-19T22:33:04.906Z,20.00
2022-08-19T22:35:37.733Z,19.90
2022-08-19T22:38:08.268Z,19.90
2022-08-19T22:40:39.524Z,20.00
2022-08-19T22:43:11.864Z,20.00
2022-08-19T22:45:40.393Z,20.00
2022-08-19T22:48:11.415Z,20.00
2022-08-19T22:50:43.666Z,19.90
2022-08-19T22:53:12.254Z,19.90
2022-08-19T22:55:40.809Z,20.00
2022-08-19T22:58:09.668Z,20.00
2022-08-19T23:00:38.211Z,20.00
2022-08-19T23:03:06.824Z,20.00
2022-08-19T23:05:35.495Z,20.00
2022-08-19T23:08:08.753Z,20.00
2022-08-19T23:10:37.220Z,19.90
2022-08-19T23:13:06.568Z,20.00
2022-08-19T23:15:36.815Z,19.90
2022-08-19T23:18:06.783Z,20.00
2022-08-19T23:20:38.644Z,20.00
2022-08-19T23:23:10.761Z,20.00
2022-08-19T23:25:40.276Z,19.90
2022-08-19T23:28:26.120Z,19.90
2022-08-19T23:30:55.230Z,19.90
2022-08-19T23:33:25.982Z,20.00
2022-08-19T23:36:17.148Z,19.90
2022-08-19T23:38:49.088Z,19.90
2022-08-19T23:41:19.587Z,19.90
2022-08-19T23:43:48.440Z,19.90
2022-08-19T23:46:28.099Z,19.90
2022-08-19T23:48:57.097Z,19.90
2022-08-19T23:51:26.652Z,19.90
2022-08-19T23:53:56.694Z,19.90
2022-08-19T23:56:25.163Z,19.90
2022-08-19T23:58:53.623Z,19.90
